KCVH

Hollister Municipal Airport

Hollister, California, USA
METAR KCVH 171015Z AUTO 00000KT 3SM BR CLR 11/10 A3024 RMK A01
Observed Flight Rules
Jan-17 @ 10:15 UTC (24 minutes ago) Marginal Visual Flight Rules
Wind Visibility Clouds Conditions
Calm 3 miles
  • Clear skies
  • Mist
Temperatures Readings
Current 11°C / 52°F
Dewpoint 10°C / 50°F
Humidity 94%
Altimeter 30.24" Hg
Pressure 1024 hPa
Elevation 70
METAR KCVH 171015Z AUTO 00000KT 3SM BR CLR 11/10 A3024 RMK A01
Observed Flight Rules
Jan-17 @ 10:15 UTC
(24 minutes ago)
MVFR
Wind Visibility
Calm 3 miles
Clouds
  • Clear skies
Conditions
  • Mist
Temperature Dewpoint
11°C / 52°F 10°C / 50°F
Humidity Altimeter Pressure
94% 30.24" Hg 1024 hPa